sensor_id;sensor_type;location;lat;lon;timestamp;P1;durP1;ratioP1;P2;durP2;ratioP2
71104;SDS011;58760;48.716;8.962;2023-05-10T00:00:50;0.20;;;0.20;;
71104;SDS011;58760;48.716;8.962;2023-05-10T00:03:16;1.55;;;0.40;;
71104;SDS011;58760;48.716;8.962;2023-05-10T00:05:42;2.85;;;0.40;;
71104;SDS011;58760;48.716;8.962;2023-05-10T00:08:07;0.82;;;0.35;;
71104;SDS011;58760;48.716;8.962;2023-05-10T00:10:33;4.03;;;0.20;;
71104;SDS011;58760;48.716;8.962;2023-05-10T00:12:58;0.75;;;0.20;;
71104;SDS011;58760;48.716;8.962;2023-05-10T00:15:23;0.10;;;0.10;;
71104;SDS011;58760;48.716;8.962;2023-05-10T00:17:49;2.17;;;0.30;;
71104;SDS011;58760;48.716;8.962;2023-05-10T00:20:14;2.60;;;0.13;;
71104;SDS011;58760;48.716;8.962;2023-05-10T00:22:40;2.25;;;0.10;;
71104;SDS011;58760;48.716;8.962;2023-05-10T00:25:05;4.03;;;0.30;;
71104;SDS011;58760;48.716;8.962;2023-05-10T00:27:31;0.68;;;0.10;;
71104;SDS011;58760;48.716;8.962;2023-05-10T00:29:57;0.25;;;0.10;;
71104;SDS011;58760;48.716;8.962;2023-05-10T00:32:22;0.10;;;0.10;;
71104;SDS011;58760;48.716;8.962;2023-05-10T00:34:47;0.82;;;0.25;;
71104;SDS011;58760;48.716;8.962;2023-05-10T00:37:13;1.65;;;0.15;;
71104;SDS011;58760;48.716;8.962;2023-05-10T00:39:38;2.80;;;0.30;;
71104;SDS011;58760;48.716;8.962;2023-05-10T00:42:03;1.42;;;0.17;;
71104;SDS011;58760;48.716;8.962;2023-05-10T00:44:29;0.80;;;0.20;;
71104;SDS011;58760;48.716;8.962;2023-05-10T00:46:55;1.33;;;0.10;;
71104;SDS011;58760;48.716;8.962;2023-05-10T00:49:21;1.27;;;0.17;;
71104;SDS011;58760;48.716;8.962;2023-05-10T00:51:47;0.15;;;0.15;;
71104;SDS011;58760;48.716;8.962;2023-05-10T00:54:14;0.17;;;0.10;;
71104;SDS011;58760;48.716;8.962;2023-05-10T00:56:40;0.95;;;0.10;;
71104;SDS011;58760;48.716;8.962;2023-05-10T00:59:07;0.00;;;0.00;;
71104;SDS011;58760;48.716;8.962;2023-05-10T01:01:34;0.28;;;0.00;;
71104;SDS011;58760;48.716;8.962;2023-05-10T01:04:00;0.77;;;0.20;;
71104;SDS011;58760;48.716;8.962;2023-05-10T01:06:26;2.15;;;0.20;;
71104;SDS011;58760;48.716;8.962;2023-05-10T01:08:52;0.17;;;0.17;;
71104;SDS011;58760;48.716;8.962;2023-05-10T01:11:18;0.20;;;0.20;;
71104;SDS011;58760;48.716;8.962;2023-05-10T01:13:43;0.40;;;0.10;;
71104;SDS011;58760;48.716;8.962;2023-05-10T01:16:17;0.10;;;0.10;;
71104;SDS011;58760;48.716;8.962;2023-05-10T01:18:42;0.30;;;0.10;;
71104;SDS011;58760;48.716;8.962;2023-05-10T01:21:33;0.20;;;0.20;;
71104;SDS011;58760;48.716;8.962;2023-05-10T01:32:32;0.10;;;0.10;;
71104;SDS011;58760;48.716;8.962;2023-05-10T01:40:36;1.67;;;0.20;;
71104;SDS011;58760;48.716;8.962;2023-05-10T01:43:08;0.10;;;0.10;;
71104;SDS011;58760;48.716;8.962;2023-05-10T01:45:47;0.15;;;0.10;;
71104;SDS011;58760;48.716;8.962;2023-05-10T01:48:26;0.55;;;0.20;;
71104;SDS011;58760;48.716;8.962;2023-05-10T01:50:54;0.50;;;0.20;;
71104;SDS011;58760;48.716;8.962;2023-05-10T01:53:21;0.25;;;0.25;;
71104;SDS011;58760;48.716;8.962;2023-05-10T01:55:49;0.73;;;0.30;;
71104;SDS011;58760;48.716;8.962;2023-05-10T01:58:30;0.80;;;0.20;;
71104;SDS011;58760;48.716;8.962;2023-05-10T02:00:58;1.20;;;0.20;;
71104;SDS011;58760;48.716;8.962;2023-05-10T02:03:26;0.30;;;0.30;;
71104;SDS011;58760;48.716;8.962;2023-05-10T02:05:53;0.20;;;0.20;;
71104;SDS011;58760;48.716;8.962;2023-05-10T02:08:21;1.55;;;0.32;;
71104;SDS011;58760;48.716;8.962;2023-05-10T02:10:47;0.10;;;0.10;;
71104;SDS011;58760;48.716;8.962;2023-05-10T02:13:15;0.80;;;0.20;;
71104;SDS011;58760;48.716;8.962;2023-05-10T02:15:41;0.20;;;0.10;;
71104;SDS011;58760;48.716;8.962;2023-05-10T02:20:35;0.28;;;0.15;;
71104;SDS011;58760;48.716;8.962;2023-05-10T02:23:02;1.75;;;0.20;;
71104;SDS011;58760;48.716;8.962;2023-05-10T02:25:29;0.30;;;0.30;;
71104;SDS011;58760;48.716;8.962;2023-05-10T02:27:56;1.08;;;0.22;;
71104;SDS011;58760;48.716;8.962;2023-05-10T02:30:23;0.82;;;0.40;;
71104;SDS011;58760;48.716;8.962;2023-05-10T02:32:50;0.60;;;0.30;;
71104;SDS011;58760;48.716;8.962;2023-05-10T02:35:17;0.88;;;0.45;;
71104;SDS011;58760;48.716;8.962;2023-05-10T02:37:43;0.85;;;0.30;;
71104;SDS011;58760;48.716;8.962;2023-05-10T02:40:11;3.10;;;0.40;;
71104;SDS011;58760;48.716;8.962;2023-05-10T02:42:38;0.32;;;0.32;;
71104;SDS011;58760;48.716;8.962;2023-05-10T02:45:08;0.98;;;0.40;;
71104;SDS011;58760;48.716;8.962;2023-05-10T02:47:40;0.95;;;0.45;;
71104;SDS011;58760;48.716;8.962;2023-05-10T02:50:05;0.90;;;0.57;;
71104;SDS011;58760;48.716;8.962;2023-05-10T02:55:33;2.42;;;0.60;;
71104;SDS011;58760;48.716;8.962;2023-05-10T02:58:03;0.95;;;0.60;;
71104;SDS011;58760;48.716;8.962;2023-05-10T03:00:28;1.35;;;0.60;;
71104;SDS011;58760;48.716;8.962;2023-05-10T03:02:54;0.77;;;0.50;;
71104;SDS011;58760;48.716;8.962;2023-05-10T03:05:20;1.50;;;0.70;;
71104;SDS011;58760;48.716;8.962;2023-05-10T03:07:45;2.17;;;0.82;;
71104;SDS011;58760;48.716;8.962;2023-05-10T03:10:11;1.17;;;0.55;;
71104;SDS011;58760;48.716;8.962;2023-05-10T03:20:48;0.85;;;0.70;;
71104;SDS011;58760;48.716;8.962;2023-05-10T03:26:00;1.95;;;0.55;;
71104;SDS011;58760;48.716;8.962;2023-05-10T03:28:26;0.93;;;0.60;;
71104;SDS011;58760;48.716;8.962;2023-05-10T03:30:53;1.13;;;0.70;;
71104;SDS011;58760;48.716;8.962;2023-05-10T03:35:45;1.40;;;0.70;;
71104;SDS011;58760;48.716;8.962;2023-05-10T03:38:11;1.20;;;0.55;;
71104;SDS011;58760;48.716;8.962;2023-05-10T03:40:39;1.33;;;0.60;;
71104;SDS011;58760;48.716;8.962;2023-05-10T03:43:04;1.52;;;0.70;;
71104;SDS011;58760;48.716;8.962;2023-05-10T03:45:30;2.20;;;0.90;;
71104;SDS011;58760;48.716;8.962;2023-05-10T03:47:56;1.35;;;0.90;;
71104;SDS011;58760;48.716;8.962;2023-05-10T03:50:22;1.05;;;0.73;;
71104;SDS011;58760;48.716;8.962;2023-05-10T03:52:47;1.33;;;0.73;;
71104;SDS011;58760;48.716;8.962;2023-05-10T03:55:13;1.00;;;0.80;;
71104;SDS011;58760;48.716;8.962;2023-05-10T03:57:38;2.25;;;0.80;;
71104;SDS011;58760;48.716;8.962;2023-05-10T04:00:04;3.15;;;0.88;;
71104;SDS011;58760;48.716;8.962;2023-05-10T04:02:29;1.75;;;0.77;;
71104;SDS011;58760;48.716;8.962;2023-05-10T04:04:55;6.18;;;1.73;;
71104;SDS011;58760;48.716;8.962;2023-05-10T04:07:21;1.75;;;0.98;;
71104;SDS011;58760;48.716;8.962;2023-05-10T04:09:46;1.73;;;1.00;;
71104;SDS011;58760;48.716;8.962;2023-05-10T04:12:12;3.00;;;0.90;;
71104;SDS011;58760;48.716;8.962;2023-05-10T04:14:37;1.48;;;0.70;;
71104;SDS011;58760;48.716;8.962;2023-05-10T04:17:03;1.10;;;0.63;;
71104;SDS011;58760;48.716;8.962;2023-05-10T04:19:29;2.17;;;0.80;;
71104;SDS011;58760;48.716;8.962;2023-05-10T04:21:58;1.92;;;0.90;;
71104;SDS011;58760;48.716;8.962;2023-05-10T04:24:23;1.35;;;0.68;;
71104;SDS011;58760;48.716;8.962;2023-05-10T04:26:49;2.50;;;0.98;;
71104;SDS011;58760;48.716;8.962;2023-05-10T04:29:14;1.50;;;0.60;;
71104;SDS011;58760;48.716;8.962;2023-05-10T04:31:40;3.28;;;1.00;;
71104;SDS011;58760;48.716;8.962;2023-05-10T04:34:05;2.33;;;0.50;;
71104;SDS011;58760;48.716;8.962;2023-05-10T04:36:31;1.00;;;0.77;;
71104;SDS011;58760;48.716;8.962;2023-05-10T04:38:58;2.58;;;0.80;;
71104;SDS011;58760;48.716;8.962;2023-05-10T04:41:24;1.65;;;0.70;;
71104;SDS011;58760;48.716;8.962;2023-05-10T04:46:16;2.60;;;0.60;;
71104;SDS011;58760;48.716;8.962;2023-05-10T04:48:41;2.00;;;0.80;;
71104;SDS011;58760;48.716;8.962;2023-05-10T04:51:06;1.00;;;0.60;;
71104;SDS011;58760;48.716;8.962;2023-05-10T04:53:32;2.88;;;0.93;;
71104;SDS011;58760;48.716;8.962;2023-05-10T04:55:57;3.75;;;1.10;;
71104;SDS011;58760;48.716;8.962;2023-05-10T04:58:23;1.63;;;0.82;;
71104;SDS011;58760;48.716;8.962;2023-05-10T05:00:48;5.05;;;0.93;;
71104;SDS011;58760;48.716;8.962;2023-05-10T05:03:13;0.77;;;0.63;;
71104;SDS011;58760;48.716;8.962;2023-05-10T05:05:39;1.38;;;0.70;;
71104;SDS011;58760;48.716;8.962;2023-05-10T05:08:05;1.70;;;0.70;;
71104;SDS011;58760;48.716;8.962;2023-05-10T05:10:30;1.10;;;0.70;;
71104;SDS011;58760;48.716;8.962;2023-05-10T05:12:55;0.80;;;0.60;;
71104;SDS011;58760;48.716;8.962;2023-05-10T05:15:21;1.70;;;0.80;;
71104;SDS011;58760;48.716;8.962;2023-05-10T05:17:46;1.58;;;0.80;;
71104;SDS011;58760;48.716;8.962;2023-05-10T05:20:12;5.22;;;1.10;;
71104;SDS011;58760;48.716;8.962;2023-05-10T05:22:38;1.30;;;0.80;;
71104;SDS011;58760;48.716;8.962;2023-05-10T05:25:04;1.27;;;0.73;;
71104;SDS011;58760;48.716;8.962;2023-05-10T05:27:30;1.25;;;0.80;;
71104;SDS011;58760;48.716;8.962;2023-05-10T05:29:56;5.55;;;1.52;;
71104;SDS011;58760;48.716;8.962;2023-05-10T05:32:22;5.97;;;0.98;;
71104;SDS011;58760;48.716;8.962;2023-05-10T05:34:48;1.27;;;0.70;;
71104;SDS011;58760;48.716;8.962;2023-05-10T05:37:17;2.95;;;1.00;;
71104;SDS011;58760;48.716;8.962;2023-05-10T05:39:43;3.42;;;0.85;;
71104;SDS011;58760;48.716;8.962;2023-05-10T05:42:10;2.28;;;0.80;;
71104;SDS011;58760;48.716;8.962;2023-05-10T05:44:36;1.65;;;0.70;;
71104;SDS011;58760;48.716;8.962;2023-05-10T05:47:01;2.58;;;1.00;;
71104;SDS011;58760;48.716;8.962;2023-05-10T05:49:27;1.55;;;0.80;;
71104;SDS011;58760;48.716;8.962;2023-05-10T05:51:52;1.00;;;0.60;;
71104;SDS011;58760;48.716;8.962;2023-05-10T05:54:18;1.92;;;0.80;;
71104;SDS011;58760;48.716;8.962;2023-05-10T05:56:43;3.42;;;1.02;;
71104;SDS011;58760;48.716;8.962;2023-05-10T05:59:09;1.63;;;0.98;;
71104;SDS011;58760;48.716;8.962;2023-05-10T06:01:35;1.58;;;0.85;;
71104;SDS011;58760;48.716;8.962;2023-05-10T06:04:00;1.50;;;0.88;;
71104;SDS011;58760;48.716;8.962;2023-05-10T06:06:26;1.88;;;1.05;;
71104;SDS011;58760;48.716;8.962;2023-05-10T06:08:52;3.10;;;1.00;;
71104;SDS011;58760;48.716;8.962;2023-05-10T06:11:17;3.58;;;1.20;;
71104;SDS011;58760;48.716;8.962;2023-05-10T06:13:42;1.33;;;0.80;;
71104;SDS011;58760;48.716;8.962;2023-05-10T06:16:08;2.63;;;0.90;;
71104;SDS011;58760;48.716;8.962;2023-05-10T06:18:33;1.20;;;0.70;;
71104;SDS011;58760;48.716;8.962;2023-05-10T06:20:59;1.63;;;0.80;;
71104;SDS011;58760;48.716;8.962;2023-05-10T06:23:24;1.20;;;0.80;;
71104;SDS011;58760;48.716;8.962;2023-05-10T06:25:50;2.17;;;0.90;;
71104;SDS011;58760;48.716;8.962;2023-05-10T06:28:16;3.40;;;0.90;;
71104;SDS011;58760;48.716;8.962;2023-05-10T06:30:41;4.00;;;0.90;;
71104;SDS011;58760;48.716;8.962;2023-05-10T06:33:07;3.55;;;1.00;;
71104;SDS011;58760;48.716;8.962;2023-05-10T06:35:32;1.50;;;0.90;;
71104;SDS011;58760;48.716;8.962;2023-05-10T06:37:58;2.05;;;0.90;;
71104;SDS011;58760;48.716;8.962;2023-05-10T06:40:23;1.25;;;0.80;;
71104;SDS011;58760;48.716;8.962;2023-05-10T06:42:49;1.85;;;0.73;;
71104;SDS011;58760;48.716;8.962;2023-05-10T06:45:14;3.90;;;1.13;;
71104;SDS011;58760;48.716;8.962;2023-05-10T06:47:40;1.73;;;0.80;;
71104;SDS011;58760;48.716;8.962;2023-05-10T06:50:07;2.03;;;0.90;;
71104;SDS011;58760;48.716;8.962;2023-05-10T06:52:33;5.30;;;0.80;;
71104;SDS011;58760;48.716;8.962;2023-05-10T06:54:58;3.97;;;0.93;;
71104;SDS011;58760;48.716;8.962;2023-05-10T06:57:24;3.88;;;0.77;;
71104;SDS011;58760;48.716;8.962;2023-05-10T06:59:49;1.45;;;1.00;;
71104;SDS011;58760;48.716;8.962;2023-05-10T07:02:15;2.88;;;0.90;;
71104;SDS011;58760;48.716;8.962;2023-05-10T07:04:40;3.03;;;0.90;;
71104;SDS011;58760;48.716;8.962;2023-05-10T07:07:06;1.63;;;0.82;;
71104;SDS011;58760;48.716;8.962;2023-05-10T07:09:31;1.63;;;0.93;;
71104;SDS011;58760;48.716;8.962;2023-05-10T07:11:57;2.53;;;0.93;;
71104;SDS011;58760;48.716;8.962;2023-05-10T07:14:22;2.05;;;0.90;;
71104;SDS011;58760;48.716;8.962;2023-05-10T07:16:48;2.97;;;1.00;;
71104;SDS011;58760;48.716;8.962;2023-05-10T07:19:13;4.95;;;0.90;;
71104;SDS011;58760;48.716;8.962;2023-05-10T07:21:39;2.58;;;0.80;;
71104;SDS011;58760;48.716;8.962;2023-05-10T07:24:05;3.25;;;0.80;;
71104;SDS011;58760;48.716;8.962;2023-05-10T07:26:30;6.22;;;0.82;;
71104;SDS011;58760;48.716;8.962;2023-05-10T07:28:56;0.50;;;0.50;;
71104;SDS011;58760;48.716;8.962;2023-05-10T07:31:21;0.95;;;0.60;;
71104;SDS011;58760;48.716;8.962;2023-05-10T07:33:47;1.88;;;0.77;;
71104;SDS011;58760;48.716;8.962;2023-05-10T07:36:12;0.60;;;0.60;;
71104;SDS011;58760;48.716;8.962;2023-05-10T07:38:38;1.33;;;0.80;;
71104;SDS011;58760;48.716;8.962;2023-05-10T07:41:03;1.65;;;0.73;;
71104;SDS011;58760;48.716;8.962;2023-05-10T07:43:29;1.08;;;0.75;;
71104;SDS011;58760;48.716;8.962;2023-05-10T07:45:54;1.52;;;0.73;;
71104;SDS011;58760;48.716;8.962;2023-05-10T07:48:19;2.88;;;0.80;;
71104;SDS011;58760;48.716;8.962;2023-05-10T07:50:45;1.67;;;0.80;;
71104;SDS011;58760;48.716;8.962;2023-05-10T07:53:10;3.13;;;0.70;;
71104;SDS011;58760;48.716;8.962;2023-05-10T07:55:36;2.25;;;0.82;;
71104;SDS011;58760;48.716;8.962;2023-05-10T07:58:01;2.42;;;0.60;;
71104;SDS011;58760;48.716;8.962;2023-05-10T08:00:26;1.65;;;0.63;;
71104;SDS011;58760;48.716;8.962;2023-05-10T08:02:52;1.70;;;0.70;;
71104;SDS011;58760;48.716;8.962;2023-05-10T08:05:17;3.85;;;0.70;;
71104;SDS011;58760;48.716;8.962;2023-05-10T08:07:43;4.60;;;0.80;;
71104;SDS011;58760;48.716;8.962;2023-05-10T08:10:09;1.15;;;0.60;;
71104;SDS011;58760;48.716;8.962;2023-05-10T08:12:35;1.48;;;0.60;;
71104;SDS011;58760;48.716;8.962;2023-05-10T08:15:01;1.90;;;0.68;;
71104;SDS011;58760;48.716;8.962;2023-05-10T08:17:27;0.85;;;0.50;;
71104;SDS011;58760;48.716;8.962;2023-05-10T08:19:52;0.30;;;0.30;;
71104;SDS011;58760;48.716;8.962;2023-05-10T08:22:17;2.95;;;0.60;;
71104;SDS011;58760;48.716;8.962;2023-05-10T08:24:43;4.25;;;0.57;;
71104;SDS011;58760;48.716;8.962;2023-05-10T08:27:08;2.20;;;0.75;;
71104;SDS011;58760;48.716;8.962;2023-05-10T08:29:33;0.65;;;0.40;;
71104;SDS011;58760;48.716;8.962;2023-05-10T08:31:59;3.38;;;0.60;;
71104;SDS011;58760;48.716;8.962;2023-05-10T08:36:51;1.35;;;0.45;;
71104;SDS011;58760;48.716;8.962;2023-05-10T08:39:16;0.57;;;0.25;;
71104;SDS011;58760;48.716;8.962;2023-05-10T08:41:42;0.20;;;0.20;;
71104;SDS011;58760;48.716;8.962;2023-05-10T08:44:09;1.45;;;0.40;;
71104;SDS011;58760;48.716;8.962;2023-05-10T08:46:35;1.08;;;0.40;;
71104;SDS011;58760;48.716;8.962;2023-05-10T08:49:04;0.85;;;0.35;;
71104;SDS011;58760;48.716;8.962;2023-05-10T08:51:36;1.05;;;0.40;;
71104;SDS011;58760;48.716;8.962;2023-05-10T08:54:05;2.63;;;0.30;;
71104;SDS011;58760;48.716;8.962;2023-05-10T08:56:31;1.38;;;0.30;;
71104;SDS011;58760;48.716;8.962;2023-05-10T08:58:56;2.20;;;0.40;;
71104;SDS011;58760;48.716;8.962;2023-05-10T09:01:22;3.53;;;0.30;;
71104;SDS011;58760;48.716;8.962;2023-05-10T09:03:47;1.05;;;0.30;;
71104;SDS011;58760;48.716;8.962;2023-05-10T09:06:13;1.15;;;0.20;;
71104;SDS011;58760;48.716;8.962;2023-05-10T09:08:40;2.72;;;0.22;;
71104;SDS011;58760;48.716;8.962;2023-05-10T09:11:06;1.35;;;0.35;;
71104;SDS011;58760;48.716;8.962;2023-05-10T09:13:33;1.92;;;0.57;;
71104;SDS011;58760;48.716;8.962;2023-05-10T09:16:00;1.25;;;0.43;;
71104;SDS011;58760;48.716;8.962;2023-05-10T09:18:26;0.38;;;0.20;;
71104;SDS011;58760;48.716;8.962;2023-05-10T09:20:51;1.45;;;0.30;;
71104;SDS011;58760;48.716;8.962;2023-05-10T09:23:16;1.30;;;0.38;;
71104;SDS011;58760;48.716;8.962;2023-05-10T09:25:42;1.88;;;0.60;;
71104;SDS011;58760;48.716;8.962;2023-05-10T09:28:07;1.42;;;0.43;;
71104;SDS011;58760;48.716;8.962;2023-05-10T09:30:35;1.88;;;0.28;;
71104;SDS011;58760;48.716;8.962;2023-05-10T09:33:01;4.20;;;0.30;;
71104;SDS011;58760;48.716;8.962;2023-05-10T09:35:27;1.00;;;0.52;;
71104;SDS011;58760;48.716;8.962;2023-05-10T09:37:54;0.85;;;0.20;;
71104;SDS011;58760;48.716;8.962;2023-05-10T09:40:22;1.63;;;0.38;;
71104;SDS011;58760;48.716;8.962;2023-05-10T09:45:24;0.55;;;0.30;;
71104;SDS011;58760;48.716;8.962;2023-05-10T09:47:50;1.02;;;0.28;;
71104;SDS011;58760;48.716;8.962;2023-05-10T09:50:16;0.85;;;0.20;;
71104;SDS011;58760;48.716;8.962;2023-05-10T09:52:46;0.20;;;0.20;;
71104;SDS011;58760;48.716;8.962;2023-05-10T09:55:14;1.00;;;0.40;;
71104;SDS011;58760;48.716;8.962;2023-05-10T09:57:40;1.02;;;0.47;;
71104;SDS011;58760;48.716;8.962;2023-05-10T10:00:06;1.45;;;0.35;;
71104;SDS011;58760;48.716;8.962;2023-05-10T10:04:58;2.50;;;0.47;;
71104;SDS011;58760;48.716;8.962;2023-05-10T10:07:26;0.55;;;0.20;;
71104;SDS011;58760;48.716;8.962;2023-05-10T10:09:52;2.08;;;0.40;;
71104;SDS011;58760;48.716;8.962;2023-05-10T10:12:18;1.55;;;0.43;;
71104;SDS011;58760;48.716;8.962;2023-05-10T10:14:48;2.75;;;0.40;;
71104;SDS011;58760;48.716;8.962;2023-05-10T10:17:15;0.73;;;0.40;;
71104;SDS011;58760;48.716;8.962;2023-05-10T10:19:41;6.00;;;0.50;;
71104;SDS011;58760;48.716;8.962;2023-05-10T10:22:06;1.95;;;0.57;;
71104;SDS011;58760;48.716;8.962;2023-05-10T10:24:32;0.73;;;0.28;;
71104;SDS011;58760;48.716;8.962;2023-05-10T10:35:29;1.00;;;0.22;;
71104;SDS011;58760;48.716;8.962;2023-05-10T10:37:55;1.67;;;0.30;;
71104;SDS011;58760;48.716;8.962;2023-05-10T10:40:28;6.32;;;0.82;;
71104;SDS011;58760;48.716;8.962;2023-05-10T10:42:55;1.13;;;0.40;;
71104;SDS011;58760;48.716;8.962;2023-05-10T10:45:22;0.63;;;0.28;;
71104;SDS011;58760;48.716;8.962;2023-05-10T10:47:48;1.73;;;0.43;;
71104;SDS011;58760;48.716;8.962;2023-05-10T10:50:14;1.27;;;0.40;;
71104;SDS011;58760;48.716;8.962;2023-05-10T10:55:11;1.02;;;0.30;;
71104;SDS011;58760;48.716;8.962;2023-05-10T11:02:54;0.28;;;0.20;;
71104;SDS011;58760;48.716;8.962;2023-05-10T11:08:12;3.30;;;0.50;;
71104;SDS011;58760;48.716;8.962;2023-05-10T11:10:49;1.27;;;0.40;;
71104;SDS011;58760;48.716;8.962;2023-05-10T11:13:30;1.42;;;0.40;;
71104;SDS011;58760;48.716;8.962;2023-05-10T11:15:56;2.10;;;0.50;;
71104;SDS011;58760;48.716;8.962;2023-05-10T11:18:29;0.88;;;0.40;;
71104;SDS011;58760;48.716;8.962;2023-05-10T11:23:20;4.15;;;0.68;;
71104;SDS011;58760;48.716;8.962;2023-05-10T11:25:46;3.38;;;0.60;;
71104;SDS011;58760;48.716;8.962;2023-05-10T11:28:13;0.63;;;0.40;;
71104;SDS011;58760;48.716;8.962;2023-05-10T11:30:40;2.00;;;0.47;;
71104;SDS011;58760;48.716;8.962;2023-05-10T11:33:07;4.25;;;0.43;;
71104;SDS011;58760;48.716;8.962;2023-05-10T11:35:40;0.55;;;0.40;;
71104;SDS011;58760;48.716;8.962;2023-05-10T11:38:06;3.47;;;0.90;;
71104;SDS011;58760;48.716;8.962;2023-05-10T11:40:36;3.67;;;0.60;;
71104;SDS011;58760;48.716;8.962;2023-05-10T11:43:02;0.63;;;0.43;;
71104;SDS011;58760;48.716;8.962;2023-05-10T11:45:28;1.80;;;0.57;;
71104;SDS011;58760;48.716;8.962;2023-05-10T11:47:57;1.33;;;0.47;;
71104;SDS011;58760;48.716;8.962;2023-05-10T11:50:22;7.60;;;0.80;;
71104;SDS011;58760;48.716;8.962;2023-05-10T11:52:51;1.50;;;0.60;;
71104;SDS011;58760;48.716;8.962;2023-05-10T11:55:21;1.98;;;0.50;;
71104;SDS011;58760;48.716;8.962;2023-05-10T11:57:47;1.13;;;0.65;;
71104;SDS011;58760;48.716;8.962;2023-05-10T12:00:13;2.80;;;0.60;;
71104;SDS011;58760;48.716;8.962;2023-05-10T12:02:39;0.90;;;0.50;;
71104;SDS011;58760;48.716;8.962;2023-05-10T12:05:04;1.65;;;0.90;;
71104;SDS011;58760;48.716;8.962;2023-05-10T12:07:31;3.72;;;0.75;;
71104;SDS011;58760;48.716;8.962;2023-05-10T12:10:09;3.53;;;0.80;;
71104;SDS011;58760;48.716;8.962;2023-05-10T12:12:43;3.38;;;0.70;;
71104;SDS011;58760;48.716;8.962;2023-05-10T12:15:10;1.55;;;0.50;;
71104;SDS011;58760;48.716;8.962;2023-05-10T12:17:37;2.03;;;0.52;;
71104;SDS011;58760;48.716;8.962;2023-05-10T12:20:14;1.88;;;0.60;;
71104;SDS011;58760;48.716;8.962;2023-05-10T12:22:51;2.35;;;0.68;;
71104;SDS011;58760;48.716;8.962;2023-05-10T12:25:21;1.42;;;0.57;;
71104;SDS011;58760;48.716;8.962;2023-05-10T12:27:48;1.67;;;0.65;;
71104;SDS011;58760;48.716;8.962;2023-05-10T12:30:26;1.35;;;0.65;;
71104;SDS011;58760;48.716;8.962;2023-05-10T12:32:53;1.13;;;0.60;;
71104;SDS011;58760;48.716;8.962;2023-05-10T12:35:19;2.05;;;0.63;;
71104;SDS011;58760;48.716;8.962;2023-05-10T12:37:47;2.60;;;1.08;;
71104;SDS011;58760;48.716;8.962;2023-05-10T12:40:13;3.97;;;0.80;;
71104;SDS011;58760;48.716;8.962;2023-05-10T12:42:39;3.35;;;0.60;;
71104;SDS011;58760;48.716;8.962;2023-05-10T12:45:05;2.92;;;0.70;;
71104;SDS011;58760;48.716;8.962;2023-05-10T12:47:31;2.05;;;0.88;;
71104;SDS011;58760;48.716;8.962;2023-05-10T12:49:57;1.65;;;0.60;;
71104;SDS011;58760;48.716;8.962;2023-05-10T12:52:24;0.73;;;0.55;;
71104;SDS011;58760;48.716;8.962;2023-05-10T12:54:51;2.42;;;0.85;;
71104;SDS011;58760;48.716;8.962;2023-05-10T12:57:17;6.20;;;0.70;;
71104;SDS011;58760;48.716;8.962;2023-05-10T12:59:43;2.63;;;0.63;;
71104;SDS011;58760;48.716;8.962;2023-05-10T13:02:08;1.45;;;0.52;;
71104;SDS011;58760;48.716;8.962;2023-05-10T13:04:33;2.63;;;0.65;;
71104;SDS011;58760;48.716;8.962;2023-05-10T13:06:59;1.50;;;0.50;;
71104;SDS011;58760;48.716;8.962;2023-05-10T13:09:25;3.00;;;0.70;;
71104;SDS011;58760;48.716;8.962;2023-05-10T13:11:51;2.90;;;0.60;;
71104;SDS011;58760;48.716;8.962;2023-05-10T13:14:18;3.80;;;0.93;;
71104;SDS011;58760;48.716;8.962;2023-05-10T13:16:45;2.97;;;0.70;;
71104;SDS011;58760;48.716;8.962;2023-05-10T13:19:11;0.85;;;0.40;;
71104;SDS011;58760;48.716;8.962;2023-05-10T13:21:36;2.25;;;0.60;;
71104;SDS011;58760;48.716;8.962;2023-05-10T13:24:01;3.95;;;0.80;;
71104;SDS011;58760;48.716;8.962;2023-05-10T13:26:27;2.10;;;0.70;;
71104;SDS011;58760;48.716;8.962;2023-05-10T13:28:53;3.13;;;1.02;;
71104;SDS011;58760;48.716;8.962;2023-05-10T13:31:20;6.45;;;0.80;;
71104;SDS011;58760;48.716;8.962;2023-05-10T13:33:46;3.97;;;0.82;;
71104;SDS011;58760;48.716;8.962;2023-05-10T13:36:11;2.03;;;0.80;;
71104;SDS011;58760;48.716;8.962;2023-05-10T13:38:37;1.95;;;0.60;;
71104;SDS011;58760;48.716;8.962;2023-05-10T13:41:02;4.20;;;0.90;;
71104;SDS011;58760;48.716;8.962;2023-05-10T13:43:28;1.58;;;0.50;;
71104;SDS011;58760;48.716;8.962;2023-05-10T13:48:19;2.85;;;0.60;;
71104;SDS011;58760;48.716;8.962;2023-05-10T13:50:45;3.38;;;0.77;;
71104;SDS011;58760;48.716;8.962;2023-05-10T13:53:11;1.58;;;0.50;;
71104;SDS011;58760;48.716;8.962;2023-05-10T13:55:36;2.38;;;0.57;;
71104;SDS011;58760;48.716;8.962;2023-05-10T13:58:01;1.55;;;0.57;;
71104;SDS011;58760;48.716;8.962;2023-05-10T14:00:27;1.27;;;0.50;;
71104;SDS011;58760;48.716;8.962;2023-05-10T14:02:53;1.98;;;0.57;;
71104;SDS011;58760;48.716;8.962;2023-05-10T14:05:18;2.80;;;0.70;;
71104;SDS011;58760;48.716;8.962;2023-05-10T14:07:44;3.53;;;0.60;;
71104;SDS011;58760;48.716;8.962;2023-05-10T14:10:09;4.88;;;0.50;;
71104;SDS011;58760;48.716;8.962;2023-05-10T14:12:34;6.70;;;0.90;;
71104;SDS011;58760;48.716;8.962;2023-05-10T14:15:00;3.35;;;0.70;;
71104;SDS011;58760;48.716;8.962;2023-05-10T14:17:25;3.50;;;0.90;;
71104;SDS011;58760;48.716;8.962;2023-05-10T14:19:52;1.90;;;0.35;;
71104;SDS011;58760;48.716;8.962;2023-05-10T14:22:17;1.00;;;0.40;;
71104;SDS011;58760;48.716;8.962;2023-05-10T14:24:43;0.82;;;0.40;;
71104;SDS011;58760;48.716;8.962;2023-05-10T14:27:11;2.40;;;0.60;;
71104;SDS011;58760;48.716;8.962;2023-05-10T14:29:37;3.08;;;0.60;;
71104;SDS011;58760;48.716;8.962;2023-05-10T14:32:02;1.00;;;0.50;;
71104;SDS011;58760;48.716;8.962;2023-05-10T14:34:28;1.75;;;0.43;;
71104;SDS011;58760;48.716;8.962;2023-05-10T14:36:53;2.55;;;0.50;;
71104;SDS011;58760;48.716;8.962;2023-05-10T14:39:19;2.15;;;0.75;;
71104;SDS011;58760;48.716;8.962;2023-05-10T14:41:44;2.05;;;0.57;;
71104;SDS011;58760;48.716;8.962;2023-05-10T14:44:10;3.53;;;0.77;;
71104;SDS011;58760;48.716;8.962;2023-05-10T14:46:36;0.40;;;0.40;;
71104;SDS011;58760;48.716;8.962;2023-05-10T14:49:01;1.88;;;0.60;;
71104;SDS011;58760;48.716;8.962;2023-05-10T14:51:27;3.08;;;0.60;;
71104;SDS011;58760;48.716;8.962;2023-05-10T14:53:52;1.88;;;0.52;;
71104;SDS011;58760;48.716;8.962;2023-05-10T14:56:17;2.83;;;0.50;;
71104;SDS011;58760;48.716;8.962;2023-05-10T14:58:43;2.63;;;0.70;;
71104;SDS011;58760;48.716;8.962;2023-05-10T15:01:08;2.70;;;0.45;;
71104;SDS011;58760;48.716;8.962;2023-05-10T15:03:34;1.45;;;0.50;;
71104;SDS011;58760;48.716;8.962;2023-05-10T15:05:59;4.93;;;0.50;;
71104;SDS011;58760;48.716;8.962;2023-05-10T15:08:24;2.47;;;0.40;;
71104;SDS011;58760;48.716;8.962;2023-05-10T15:10:50;1.70;;;0.50;;
71104;SDS011;58760;48.716;8.962;2023-05-10T15:13:16;4.20;;;0.63;;
71104;SDS011;58760;48.716;8.962;2023-05-10T15:15:42;2.70;;;0.68;;
71104;SDS011;58760;48.716;8.962;2023-05-10T15:18:08;1.35;;;0.40;;
71104;SDS011;58760;48.716;8.962;2023-05-10T15:20:34;0.95;;;0.40;;
71104;SDS011;58760;48.716;8.962;2023-05-10T15:23:00;1.80;;;0.50;;
71104;SDS011;58760;48.716;8.962;2023-05-10T15:25:25;6.03;;;0.70;;
71104;SDS011;58760;48.716;8.962;2023-05-10T15:27:51;1.98;;;0.45;;
71104;SDS011;58760;48.716;8.962;2023-05-10T15:30:16;1.02;;;0.50;;
71104;SDS011;58760;48.716;8.962;2023-05-10T15:32:41;3.17;;;0.57;;
71104;SDS011;58760;48.716;8.962;2023-05-10T15:35:07;1.13;;;0.60;;
71104;SDS011;58760;48.716;8.962;2023-05-10T15:37:34;1.13;;;0.40;;
71104;SDS011;58760;48.716;8.962;2023-05-10T15:39:59;1.92;;;0.40;;
71104;SDS011;58760;48.716;8.962;2023-05-10T15:42:29;3.97;;;0.60;;
71104;SDS011;58760;48.716;8.962;2023-05-10T15:44:55;3.00;;;0.43;;
71104;SDS011;58760;48.716;8.962;2023-05-10T15:47:21;2.45;;;0.40;;
71104;SDS011;58760;48.716;8.962;2023-05-10T15:49:47;2.70;;;0.52;;